Reindeer Run 5K


Reindeer Run 5K

Age Group Results

December 06, 2014


Classic Race Services, LLC Classic Race Services


Men: Top Finishers 0-10 11-14 15-19 20-24 25-29 30-34 35-39 40-44 45-49 50-54 55-59 60-64 65-69 70-99
Women: Top Finishers 0-10 11-14 15-19 20-24 25-29 30-34 35-39 40-44 45-49 50-54 55-59 60-64 65-69

Top

Male Overall Winners

Place Name City Bib No Age Div Overall Total Time Pace
1 Jeff Chalmers Canton GA 218 43 5K 1 19:10.4 6:11/M
Top

Female Overall Winners

Place Name City Bib No Age Div Overall Total Time Pace
1 Caitlyn Farrel Canton GA 292 17 5K 3 21:43.8 7:00/M
Top

Male Masters Winners

Place Name City Bib No Age Div Overall Total Time Pace
1 Jeffery Costa Canton GA 244 47 5K 6 22:03.2 7:07/M
Top

Female Masters Winners

Place Name City Bib No Age Div Overall Total Time Pace
1 Dianne Gorski Canton GA 328 44 5K 29 25:05.6 8:05/M
Top

Male 10 and under

Place Name City Bib No Age Div Overall Total Time Pace
1 Joey Vos Cumming GA 848 10 5K 10 23:22.9 7:32/M
2 Daniel Comeau Canton GA 236 9 5K 21 24:44.6 7:59/M
3 Mitchell Wade Canton GA 770 10 5K 22 24:45.5 7:59/M
4 Jojo Palmese Canton GA 601 10 5K 24 24:49.3 8:00/M
5 Luke Payne Canton GA 608 9 5K 51 26:50.6 8:39/M
6 Walker Ade Canton GA 113 9 5K 56 27:00.2 8:43/M
7 Nick Rule Canton GA 868 10 5K 62 27:23.4 8:50/M
8 Cooper Bryan Woodstock GA 829 8 5K 67 27:54.2 9:00/M
9 Taylor Carter Canton GA 211 9 5K 69 27:59.6 9:02/M
10 Jake Vos Cumming GA 849 8 5K 70 28:04.8 9:03/M
11 Ryan Capozzi Canton GA 204 9 5K 73 28:11.8 9:05/M
12 Fuller Morrish Canton GA 559 8 5K 79 28:37.6 9:14/M
13 Alden Hinkelmann Canton GA 376 9 5K 84 28:51.0 9:18/M
14 Hayden Clark Canton GA 222 10 5K 104 30:19.2 9:47/M
15 Jake Hughes Canton GA 403 8 5K 107 30:40.3 9:54/M
16 Caleb Kennedy Canton GA 440 10 5K 111 30:55.2 9:58/M
17 Joshua Miller Canton GA 546 10 5K 112 30:57.4 9:59/M
18 Nick Germain Canton GA 320 9 5K 113 31:01.2 10:00/M
19 Wilson Hurdle Canton GA 411 10 5K 128 32:06.4 10:21/M
20 Xander Candelario Canton GA 203 9 5K 139 32:24.5 10:27/M
21 Collin Mullins Woodstock GA 564 6 5K 151 33:10.8 10:42/M
22 Robbie MacMillan Canton GA 489 8 5K 155 33:24.9 10:46/M
23 Mitchell Leighton Canton GA 469 8 5K 163 33:58.3 10:57/M
24 Tyson Hurdle Canton GA 410 8 5K 164 33:58.9 10:57/M
25 Jake Garrett Canton GA 309 10 5K 179 35:37.9 11:29/M
26 Anthony Miller Canton GA 544 9 5K 189 36:40.7 11:50/M
27 Blake Pelkey Canton GA 611 10 5K 194 37:09.8 11:59/M
28 Benjamin Owens Canton GA 861 8 5K 208 38:39.7 12:28/M
29 Tyler Shumaker Canton GA 677 10 5K 213 39:21.3 12:42/M
30 Rileyjack Barber Canton GA 134 9 5K 215 39:23.4 12:42/M
31 Bryson Vaughn Canton GA 768 9 5K 216 39:26.2 12:43/M
32 Gabe Parker Canton GA 604 8 5K 218 39:45.1 12:49/M
33 Cade Sousa Canton GA 699 10 5K 224 40:17.1 13:00/M
34 Ben Seitz Alpharetta GA 857 10 5K 225 40:17.5 13:00/M
35 Roper Richards Canton GA 646 10 5K 226 40:17.9 13:00/M
36 Matthew Senack Canton GA 672 10 5K 235 40:48.0 13:10/M
37 Cole Massey Canton GA 499 9 5K 245 41:38.0 13:26/M
38 Logan Fitts Canton GA 297 9 5K 247 41:40.3 13:26/M
39 Luke Mabry Canton GA 484 10 5K 252 42:05.5 13:35/M
40 Johnny Caracalas Canton GA 205 9 5K 281 46:00.5 14:50/M
41 Daniel Balboa Canton GA 130 8 5K 296 50:31.1 16:18/M
Top

Female 10 and under

Place Name City Bib No Age Div Overall Total Time Pace
1 Olivia Bryan Woodstock GA 831 8 5K 39 25:57.2 8:22/M
2 Skyler Harrelson Canton GA 359 10 5K 47 26:28.5 8:32/M
3 Molly Heisman Canton GA 366 10 5K 54 26:56.1 8:41/M
4 Natalie Sinclair Canton GA 681 7 5K 71 28:06.0 9:04/M
5 Victoria Hutton Canton GA 413 10 5K 85 28:52.9 9:19/M
6 Adrienne Jocke Canton GA 420 9 5K 92 29:33.0 9:32/M
7 Ashton Schroyer Canton GA 666 10 5K 99 29:54.9 9:39/M
8 Caroline Olvin Canton GA 595 9 5K 100 29:55.7 9:39/M
9 Ela Suszek Canton GA 733 8 5K 101 29:57.7 9:40/M
10 Camden Hinkelmann Canton GA 377 10 5K 103 30:16.4 9:46/M
11 Reese Surratt Canton GA 731 10 5K 105 30:28.5 9:50/M
12 Caitlyn Odum Canton GA 872 10 5K 122 31:49.7 10:16/M
13 Ryan Weeks Canton GA 785 10 5K 134 32:18.5 10:25/M
14 Lola Burdick Canton GA 180 9 5K 144 32:42.9 10:33/M
15 Piper Smith Canton GA 692 9 5K 145 32:43.6 10:33/M
16 Katy Krumrey Canton GA 462 10 5K 146 32:49.0 10:35/M
17 Allie Greene Canton GA 334 9 5K 156 33:25.1 10:47/M
18 Reagan White Canton GA 793 8 5K 170 34:32.9 11:08/M
19 Brook Wildes Canton GA 796 10 5K 172 34:49.5 11:14/M
20 Lauren Orick Canton GA 600 10 5K 176 35:06.9 11:19/M
21 Sarah Pridham Canton GA 627 10 5K 184 35:45.2 11:32/M
22 Emily Pridham Canton GA 626 8 5K 185 35:53.9 11:35/M
23 Ciana Ruggiero Canton GA 658 10 5K 186 35:55.1 11:35/M
24 Reese Hugo Canton GA 406 8 5K 187 36:05.8 11:38/M
25 Lauren Morrison Canton GA 561 9 5K 191 36:52.6 11:54/M
26 Ava Georgescu Canton GA 317 9 5K 193 37:09.0 11:59/M
27 Brooke Hodges Canton GA 378 8 5K 195 37:17.9 12:02/M
28 Camryn Deaton Canton GA 261 8 5K 223 40:11.6 12:58/M
29 Isabella Moody Canton GA 553 10 5K 227 40:24.1 13:02/M
30 Marlene Jocke Canton GA 422 9 5K 232 40:37.1 13:06/M
31 Scarlett Moody Canton GA 554 10 5K 233 40:38.9 13:06/M
32 Sydney Garcia Canton GA 305 9 5K 237 41:01.5 13:14/M
33 Aneesah Shaikh Canton GA 674 9 5K 238 41:04.2 13:15/M
34 Julia Clark Canton GA 223 10 5K 241 41:17.9 13:19/M
35 Ivy Speidel Canton GA 860 9 5K 246 41:38.9 13:26/M
36 Cadence Walker Canton GA 773 9 5K 256 42:32.6 13:43/M
37 Lana Houston Canton GA 393 8 5K 261 43:03.4 13:53/M
38 Sam Smith Canton GA 693 9 5K 268 43:34.5 14:03/M
39 Keeli Mantooth Canton GA 492 10 5K 269 43:34.8 14:03/M
40 Emily Jones Canton GA 430 10 5K 286 47:38.0 15:22/M
41 Rachel Rogers Canton GA 653 10 5K 288 47:38.5 15:22/M
42 Hannah Stickle Canton GA 716 10 5K 293 50:08.8 16:10/M
43 Abbey Stickle Canton GA 821 10 5K 295 50:11.1 16:11/M
Top

Male 11 to 14

Place Name City Bib No Age Div Overall Total Time Pace
1 Ethan Nichols Woodstock GA 583 11 5K 5 21:56.8 7:05/M
2 Grant Beckman Canton GA 145 13 5K 11 23:51.2 7:42/M
3 Josh Myers Canton GA 572 13 5K 15 24:09.8 7:47/M
4 Elliott Killam Canton GA 833 14 5K 30 25:09.1 8:07/M
5 Nick Murphy Woodstock GA 570 13 5K 31 25:09.4 8:07/M
6 Logan Hicks Canton GA 370 13 5K 32 25:11.1 8:07/M
7 Christopher Blanton Jasper GA 148 12 5K 34 25:14.3 8:08/M
8 Tristan Young Canton GA 811 14 5K 50 26:36.6 8:35/M
9 Joel Killam Canton GA 834 11 5K 53 26:53.6 8:40/M
10 Gavin Adams Canton GA 107 13 5K 78 28:37.1 9:14/M
11 Matt Burke Canton GA 181 12 5K 83 28:48.1 9:17/M
12 Jake Krumrey Canton GA 461 14 5K 88 28:59.1 9:21/M
13 Zac Bostick Canton GA 161 14 5K 89 29:20.1 9:28/M
14 Matthew Bagtas Woodstock GA 122 12 5K 95 29:37.0 9:33/M
15 Andrew Petersen Holly Springs GA 614 13 5K 106 30:39.5 9:53/M
16 Brandon Taylor Canton GA 740 11 5K 149 33:08.7 10:41/M
17 Randy Miller Canton GA 549 12 5K 161 33:56.9 10:57/M
18 Jack Hodges Canton GA 379 11 5K 169 34:32.8 11:08/M
19 Nick Bronkhorst Woodstock GA 815 14 5K 171 34:33.0 11:09/M
20 Micah Towns Canton GA 758 11 5K 202 37:50.7 12:12/M
21 Owen Massey Canton GA 502 11 5K 210 38:46.6 12:30/M
22 Rackley Ade Canton GA 112 11 5K 251 42:04.2 13:34/M
23 Brycen Young Canton GA 807 12 5K 285 47:22.4 15:17/M
Top

Female 11 to 14

Place Name City Bib No Age Div Overall Total Time Pace
1 Sierra Blanton Jasper GA 150 13 5K 7 22:56.0 7:24/M
2 Hannah Heisman Canton GA 365 12 5K 13 23:56.9 7:43/M
3 Hannah Kimber Canton GA 447 14 5K 14 24:00.1 7:45/M
4 Izzy Hurdle Canton GA 408 13 5K 16 24:11.9 7:48/M
5 Maggie Stock Canton GA 721 11 5K 18 24:26.6 7:53/M
6 Veronica Olvin Canton GA 598 11 5K 19 24:41.6 7:58/M
7 Bridget Utberg Canton GA 766 11 5K 23 24:48.0 8:00/M
8 Anna Brewer Ball Ground GA 172 14 5K 27 25:03.9 8:05/M
9 Alysa Miles Ball Ground GA 845 14 5K 35 25:24.9 8:12/M
10 Reece Morrish Canton GA 560 11 5K 45 26:22.4 8:30/M
11 Emma Bussey Canton GA 185 12 5K 57 27:00.4 8:43/M
12 Lexie Wright Jasper GA 824 12 5K 61 27:23.4 8:50/M
13 Julia Miller Canton GA 869 12 5K 68 27:55.3 9:00/M
14 Lily Cavallari Canton GA 217 13 5K 123 31:51.8 10:16/M
15 Taylor Hendershot Canton GA 367 13 5K 125 32:01.5 10:20/M
16 Alexandria Renfro Woodstock GA 642 12 5K 140 32:25.8 10:27/M
17 Mia Jacobs Woodstock GA 416 14 5K 154 33:15.0 10:44/M
18 Jessica Thomas Canton GA 752 12 5K 174 34:55.2 11:16/M
19 Bailee Thomas Ball Ground GA 748 12 5K 175 35:03.1 11:18/M
20 Lindsay Nichols Canton GA 585 11 5K 197 37:28.7 12:05/M
21 Hallie Albright Woodstock GA 115 13 5K 212 39:00.7 12:35/M
22 Samantha Martin Ball Ground GA 498 11 5K 231 40:34.2 13:05/M
23 Selena Smith Canton GA 838 12 5K 263 43:10.9 13:55/M
24 Alexis Boatwright Canton GA 154 12 5K 266 43:21.7 13:59/M
25 Lilli Georgescu Canton GA 319 12 5K 289 48:27.0 15:38/M
Top

Male 15 to 19

Place Name City Bib No Age Div Overall Total Time Pace
1 Nolan Tanner Cumming GA 739 15 5K 4 21:54.9 7:04/M
2 Elijah Hawley Canton GA 887 17 5K 8 23:01.4 7:25/M
3 Preston Lowery Woodstock GA 481 16 5K 46 26:27.1 8:32/M
4 Ben Lowery Woodstock GA 479 15 5K 49 26:34.7 8:34/M
5 Cliff Barnes Canton GA 863 16 5K 91 29:29.7 9:31/M
6 Chris Jones Canton GA 429 16 5K 177 35:22.6 11:25/M
Top

Female 15 to 19

Place Name City Bib No Age Div Overall Total Time Pace
1 Caitlyn Farrel Canton GA 292 17 5K 3 21:43.8 7:00/M
2 Payton Davis Canton GA 259 15 5K 9 23:13.0 7:29/M
3 Maddie Reeves Woodstock GA 853 16 5K 20 24:43.3 7:58/M
4 Melody Yates Woodstock GA 806 15 5K 25 24:55.5 8:02/M
5 Madison Stout Canton GA 871 16 5K 28 25:04.5 8:05/M
6 Christina Adams Canton GA 106 15 5K 81 28:45.4 9:16/M
7 Ansley Lathem Woodstock GA 818 15 5K 115 31:10.2 10:03/M
8 Shea Speidel Canton GA 865 15 5K 228 40:26.0 13:03/M
9 Emily Schuvart Woodstock GA 670 17 5K 229 40:28.8 13:03/M
10 Alana Rase Canton GA 638 17 5K 243 41:33.8 13:24/M
11 Jessica Forrester Canton GA 298 16 5K 257 42:34.6 13:44/M
Top

Male 20 to 24

Place Name City Bib No Age Div Overall Total Time Pace
1 Andrew Modjeski Woodstock GA 551 20 5K 48 26:33.6 8:34/M
Top

Female 20 to 24

Place Name City Bib No Age Div Overall Total Time Pace
1 Christine Hedmann Ballground GA 362 23 5K 183 35:42.8 11:31/M
2 Amy Hua Riverdale GA 401 20 5K 219 39:48.3 12:50/M
3 Kolbi Blanton Talking Rock GA 149 24 5K 298 51:18.7 16:33/M
Top

Male 25 to 29

Place Name City Bib No Age Div Overall Total Time Pace
1 Drew Steinmetz Canton GA 706 29 5K 64 27:40.6 8:55/M
2 Brad Blanton Talking Rock GA 147 26 5K 147 33:04.8 10:40/M
3 David Kyle Acworth GA 463 29 5K 181 35:38.6 11:30/M
Top

Female 25 to 29

Place Name City Bib No Age Div Overall Total Time Pace
1 Emily Steinmetz Canton GA 707 26 5K 76 28:27.7 9:11/M
2 Lauren Roach Marrietta GA 647 29 5K 116 31:15.8 10:05/M
3 Kristen Tuggle Acworth GA 762 28 5K 180 35:38.6 11:30/M
4 Crystal Walker Canton GA 774 29 5K 255 42:32.4 13:43/M
5 Kristan Grizzle Acworth GA 342 29 5K 275 44:26.9 14:20/M
6 Kylie Townsend Waleska GA 846 28 5K 278 44:34.7 14:23/M
7 Tiffany Wilson Canton GA 801 29 5K 297 51:18.4 16:33/M
8 Amanda Kenimer Canton GA 439 29 5K 300 51:34.4 16:38/M
Top

Male 30 to 34

Place Name City Bib No Age Div Overall Total Time Pace
1 Matt Schroyer Canton GA 668 33 5K 96 29:38.9 9:34/M
2 Lawrence Gluckson Canton GA 325 32 5K 201 37:44.4 12:10/M
3 Cole Kennimer Canton GA 442 30 5K 301 51:35.3 16:38/M
Top

Female 30 to 34

Place Name City Bib No Age Div Overall Total Time Pace
1 Katherine Wallace Canton GA 780 30 5K 12 23:54.6 7:43/M
2 Leslie Guggenheim Marietta GA 346 30 5K 58 27:06.3 8:45/M
3 Gloria Lathem Woodstock GA 850 33 5K 74 28:19.8 9:08/M
4 Rachel White Canton GA 791 34 5K 168 34:32.6 11:08/M
5 Meg Martin Canton GA 497 33 5K 178 35:37.6 11:29/M
6 Rachel Wilbur-Carlyle Suwanee GA 795 33 5K 205 38:21.5 12:22/M
7 Vanessa Beatty Canton GA 143 31 5K 206 38:29.6 12:25/M
8 Staci Parker Canton GA 606 34 5K 221 39:53.7 12:52/M
9 Mandy Parker Ball Ground GA 605 34 5K 236 40:59.4 13:13/M
10 Whitney Amos Ball Ground GA 117 34 5K 254 42:16.6 13:38/M
11 Lena Codding Acworth GA 231 32 5K 274 44:22.2 14:19/M
12 Che' Davis Marietta GA 258 30 5K 276 44:32.9 14:22/M
Top

Male 35 to 39

Place Name City Bib No Age Div Overall Total Time Pace
1 Greg Murphy Woodstock GA 569 38 5K 2 21:11.2 6:50/M
2 Dedrick Duckett Canton GA 279 38 5K 37 25:43.7 8:18/M
3 Chris Bishop Canton GA 858 38 5K 40 26:01.4 8:24/M
4 David Filkins Jasper GA 294 37 5K 42 26:12.4 8:27/M
5 Robert Woody Canton GA 804 38 5K 55 26:58.7 8:42/M
6 Daniel Freeman Alpharetta GA 301 36 5K 65 27:52.5 8:59/M
7 Marek Suszek Canton GA 734 39 5K 102 30:01.4 9:41/M
8 Alan Baker Canton GA 125 38 5K 127 32:04.0 10:21/M
9 Brian Weeks Canton GA 783 37 5K 135 32:19.4 10:25/M
10 John Schroyer Woodstock GA 667 39 5K 158 33:47.1 10:54/M
11 Drew Bowers Woodstock GA 163 37 5K 160 33:54.9 10:56/M
12 J D Hurdle Canton GA 409 39 5K 165 34:09.1 11:01/M
13 Stuart Hodges Canton GA 380 38 5K 199 37:37.0 12:08/M
14 Jason Fitts Canton GA 296 38 5K 249 41:42.7 13:27/M
Top

Female 35 to 39

Place Name City Bib No Age Div Overall Total Time Pace
1 Jessica Snead Cumming GA 694 37 5K 43 26:12.6 8:27/M
2 Jessica Deluca Canton GA 263 38 5K 63 27:38.5 8:55/M
3 Hope Smith Canton GA 689 39 5K 94 29:36.8 9:33/M
4 Mary Kenny Acworth GA 443 37 5K 118 31:21.6 10:07/M
5 Jen Phillips Roswell GA 620 38 5K 119 31:32.0 10:10/M
6 Erin Thomas Ball Ground GA 751 37 5K 120 31:35.0 10:11/M
7 Shannon Luina Woodstock GA 482 36 5K 124 31:52.1 10:17/M
8 Tiffany Baker Canton GA 128 36 5K 126 32:03.7 10:20/M
9 Lili Mack Woodstock GA 485 39 5K 129 32:06.5 10:21/M
10 Charlyce Hurdle Canton GA 407 39 5K 130 32:08.8 10:22/M
11 Carrie McKinney Ball Ground GA 531 38 5K 131 32:09.9 10:22/M
12 Sarah Mullins Woodstock GA 565 36 5K 152 33:11.3 10:42/M
13 Samantha Daugherty Woodstock GA 257 35 5K 250 41:45.2 13:28/M
14 Reca Porter Canton GA 625 38 5K 253 42:08.4 13:35/M
15 Holly Boatwright Canton GA 155 39 5K 267 43:22.6 13:59/M
16 Jennifer Jones Canton GA 431 37 5K 287 47:38.3 15:22/M
Top

Male 40 to 44

Place Name City Bib No Age Div Overall Total Time Pace
1 Jeff Chalmers Canton GA 218 43 5K 1 19:10.4 6:11/M
2 Brandon Bostick Canton GA 160 43 5K 17 24:18.3 7:50/M
3 Randy Pierce Canton GA 622 44 5K 38 25:43.7 8:18/M
4 John Breen Jasper GA 171 42 5K 52 26:51.5 8:40/M
5 Duncan Sinclair Canton GA 680 42 5K 72 28:07.7 9:04/M
6 Tommy Hughes Canton GA 404 40 5K 110 30:53.6 9:58/M
7 Jami Taylor Canton GA 742 40 5K 141 32:30.2 10:29/M
8 Jack Morris Canton GA 859 41 5K 159 33:51.1 10:55/M
9 Brandon English Canton GA 286 41 5K 166 34:14.5 11:03/M
10 Justin Marion Waleska GA 494 40 5K 167 34:17.4 11:04/M
11 Kevin Wildes Canton GA 797 40 5K 173 34:50.1 11:14/M
12 Michael Taylor Canton GA 744 42 5K 188 36:23.5 11:44/M
13 Jim Whitley Woodstock GA 794 41 5K 200 37:37.4 12:08/M
14 Jim Shumaker Canton GA 676 44 5K 214 39:22.0 12:42/M
15 Jeff Kimber Canton GA 448 41 5K 230 40:33.6 13:05/M
16 Paul Houston Canton GA 394 40 5K 262 43:04.6 13:54/M
17 Brad Mann Canton GA 490 41 5K 270 44:12.3 14:15/M
Top

Female 40 to 44

Place Name City Bib No Age Div Overall Total Time Pace
1 Dianne Gorski Canton GA 328 44 5K 29 25:05.6 8:05/M
2 Heather Stray Canton GA 723 40 5K 36 25:43.4 8:18/M
3 Amy Krumrey Canton GA 460 42 5K 41 26:09.9 8:26/M
4 Leah Odonnell Woodstock GA 593 41 5K 80 28:39.5 9:15/M
5 Jenny Spain Canton GA 700 41 5K 98 29:46.6 9:36/M
6 Amy Karch Canton GA 435 44 5K 108 30:49.8 9:56/M
7 Hydee Weis Canton GA 786 44 5K 109 30:50.8 9:57/M
8 Lisa Filkins Jasper GA 295 40 5K 132 32:11.0 10:23/M
9 Kristin Derenthal Woodstock GA 264 43 5K 133 32:17.5 10:25/M
10 Kelly Heeter Canton GA 364 42 5K 136 32:19.5 10:25/M
11 Elizabeth Bofill Johns Creek GA 159 43 5K 148 33:05.0 10:40/M
12 Vicky Bryan Woodstock GA 830 42 5K 153 33:13.6 10:43/M
13 Julie Ziemecki Woodstock GA 813 43 5K 162 33:57.9 10:57/M
14 Judy Jacobs Woodstock GA 415 40 5K 182 35:41.4 11:31/M
15 Amanda Hugo Canton GA 405 40 5K 190 36:49.6 11:53/M
16 Michele Pierce Canton GA 621 41 5K 239 41:07.2 13:16/M
17 Misty Clark Canton GA 224 44 5K 242 41:19.1 13:20/M
18 Kathleen Speidel Canton GA 864 44 5K 248 41:40.8 13:26/M
19 D'Ann Albright Woodstock GA 114 44 5K 259 42:47.1 13:48/M
20 Gina Surratt Canton GA 730 43 5K 264 43:13.9 13:56/M
21 Misty Harper Canton GA 355 41 5K 271 44:17.1 14:17/M
22 Bonnie Balboa Canton GA 129 40 5K 272 44:20.2 14:18/M
23 Kathy Houston Canton GA 392 42 5K 279 44:51.1 14:28/M
24 Jenny Stickle Canton GA 717 40 5K 294 50:10.0 16:11/M
Top

Male 45 to 49

Place Name City Bib No Age Div Overall Total Time Pace
1 Jeffery Costa Canton GA 244 47 5K 6 22:03.2 7:07/M
2 Le Gibson Winder GA 882 45 5K 26 25:02.0 8:05/M
3 Scott Reed Jasper GA 640 45 5K 75 28:23.4 9:09/M
4 Richard Wade Canton GA 771 46 5K 86 28:56.0 9:20/M
5 Chris Purvis Adairsville GA 633 48 5K 117 31:19.1 10:06/M
6 Liviu Georgescu Canton GA 819 46 5K 196 37:18.4 12:02/M
7 Todd Carper Woodstock GA 208 49 5K 203 38:17.2 12:21/M
8 Joe Mabry Canton GA 483 45 5K 273 44:20.4 14:18/M
Top

Female 45 to 49

Place Name City Bib No Age Div Overall Total Time Pace
1 Andrea Bussey Catnon GA 184 45 5K 59 27:12.9 8:46/M
2 Michelle Gill Canton GA 323 45 5K 77 28:32.6 9:12/M
3 Karen Pama Canton GA 603 46 5K 137 32:22.3 10:26/M
4 Lisa Petersen Holly Springs GA 616 45 5K 138 32:23.9 10:27/M
5 Irene MacMillan Canton GA 488 46 5K 157 33:40.7 10:52/M
6 Terry Young Canton GA 810 46 5K 207 38:32.1 12:26/M
7 Cindy Thomas Canton GA 749 45 5K 209 38:41.4 12:29/M
8 Kim Costa Canton GA 245 47 5K 234 40:39.5 13:07/M
9 Theresa Rase Canton GA 639 48 5K 244 41:34.0 13:25/M
10 Denise Georgescu Canton GA 318 48 5K 290 48:29.3 15:38/M
11 Leeann Bledsoe Canton GA 152 45 5K 299 51:34.2 16:38/M
Top

Male 50 to 54

Place Name City Bib No Age Div Overall Total Time Pace
1 Chris Kleehammer Chattanooga TN 884 54 5K 44 26:18.5 8:29/M
2 Mark Diss Woodstock GA 269 50 5K 66 27:52.9 8:59/M
3 Mark Pelkey Canton GA 612 53 5K 87 28:57.3 9:20/M
4 Ronald Barnes Marble Hill GA 138 54 5K 90 29:27.8 9:30/M
5 Francisco Diaz Alpharetta GA 267 53 5K 114 31:07.7 10:02/M
6 Tony Ewers Canton GA 847 54 5K 204 38:21.2 12:22/M
Top

Female 50 to 54

Place Name City Bib No Age Div Overall Total Time Pace
1 Margene Rogers Woodstock GA 652 54 5K 60 27:16.6 8:48/M
2 Ellen Jocke Canton GA 421 53 5K 93 29:34.3 9:32/M
3 Debra Sisk Canton GA 683 52 5K 121 31:41.4 10:13/M
4 Allie Pitts Canton GA 624 54 5K 150 33:09.9 10:42/M
5 Gia Nichols Canton GA 584 50 5K 198 37:34.7 12:07/M
6 Tammie Mayo Canton GA 508 53 5K 217 39:43.2 12:49/M
7 Karen Carper Woodstock GA 207 52 5K 222 40:11.3 12:58/M
8 Christine Schuvart Woodstock GA 669 54 5K 240 41:12.6 13:17/M
9 Ann Murphy Woodstock GA 568 53 5K 280 45:58.8 14:50/M
10 Lisa Saylor Woodstock GA 661 50 5K 284 46:35.8 15:02/M
11 Mary Roehl Woodstock GA 650 51 5K 291 48:44.5 15:43/M
12 Joyce Pufnock Woodstock GA 632 52 5K 292 48:47.9 15:44/M
Top

Male 55 to 59

Place Name City Bib No Age Div Overall Total Time Pace
1 John Turner Canton GA 763 57 5K 33 25:12.6 8:08/M
2 Les Conley Canton GA 238 59 5K 265 43:20.5 13:59/M
Top

Female 55 to 59

Place Name City Bib No Age Div Overall Total Time Pace
1 Mary Lott Canton GA 476 57 5K 82 28:47.2 9:17/M
2 Cindy Torbett Canton GA 756 55 5K 97 29:45.7 9:36/M
3 Pam Morgan Alpharetta GA 555 55 5K 192 36:56.5 11:55/M
4 Alleen Lawson Ball Ground GA 465 57 5K 283 46:02.8 14:51/M
Top

Male 60 to 64

Place Name City Bib No Age Div Overall Total Time Pace
1 Roy Taylor Canton GA 842 62 5K 143 32:42.9 10:33/M
Top

Female 60 to 64

Place Name City Bib No Age Div Overall Total Time Pace
1 Sandra Lathem Canton GA 817 63 5K 282 46:01.6 14:51/M
Top

Male 65 to 69

Place Name City Bib No Age Div Overall Total Time Pace
1 Jeff Leighton Canton GA 468 66 5K 142 32:35.6 10:31/M
2 Larry Howard Canton GA 397 65 5K 211 38:47.9 12:31/M
Top

Female 65 to 69

Place Name City Bib No Age Div Overall Total Time Pace
1 Cheryl Whatley Jasper GA 789 67 5K 258 42:45.2 13:47/M
2 Luella Ledford Jasper GA 466 66 5K 277 44:34.5 14:23/M
3 Beverly Amell Canton GA 856 66 5K 302 52:47.0 17:02/M
Top

Male 70 and over

Place Name City Bib No Age Div Overall Total Time Pace
1 Bernard Casey Holly Springs GA 215 74 5K 220 39:51.1 12:51/M
2 Keith Vansant Canton GA 767 78 5K 260 42:47.7 13:48/M